x

Central Caribbean - 210 Nm Sse Of Kingston, Jamaica (42058) Wave Buoy

7:50 - Sat 27th Aug 2016 All times are EST. -5 hours from GMT.

  • Sig Wave height 3.6ft
  • Swell Direction
  • Peak Period 7s
  • Average Period 5s
  • Wind
    11mph, 13mph gusts
  • Sea Temp 84°f
  • Ar Temp 84°f
  • Sea Pressure 1011.4mb
  • Central Caribbean - 210 Nm Sse Of Kingston, Jamaica
  • Central Caribbean - 210 Nm Sse Of Kingston, Jamaica

More Historic Weather Station data

Upgrade to MSW Pro to gain access to the past 30 days of data for over 8000 Wavebouys and Weather Stations around the globe.

Join Pro

Comparision Forecast

View Surf forecast
   
Sáb 08/27 7:50 3.5ft 7s 5s 11 13 mph 1011.4mb 84f 84f
6:50 3.5ft 7s 5s 18 20 mph 1010.7mb 84f 83f
5:50 4ft 7s 5s 11 13 mph 1010.6mb 84f 84f
4:50 4ft 7s 5s 13 16 mph 1010.3mb 84f 84f
3:50 4ft 7s 5s 18 20 mph 1009.6mb 84f 84f
2:50 4ft 6s 5s 16 20 mph 1009.6mb 85f 84f
1:50 4ft 7s 5s 18 20 mph 1009.9mb 85f 84f
12:50 4ft 7s 5s 16 18 mph 1010.7mb 85f 84f
Sex 08/26 11:50 4.5ft 7s 5s 7 9 mph 1011.5mb 85f 83f
10:50 4.5ft 7s 5s 16 18 mph 1011.7mb 85f 84f
9:50 4.5ft 7s 5s 11 13 mph 1011.9mb 85f 84f
8:50 4.5ft 7s 5s 16 18 mph 1011.5mb 85f 85f
7:50 4.5ft 7s 5s 16 18 mph 1010.8mb 85f 84f
6:50 4.5ft 7s 5s 16 18 mph 1010.2mb 85f 85f
5:50 4.5ft 7s 5s 13 16 mph 1009.8mb 85f 84f
4:50 4.5ft 7s 5s 13 16 mph 1009.4mb 85f 85f
3:50 4.5ft 7s 5s 16 18 mph 1009.2mb 85f 85f
2:50 4.5ft 7s 5s 16 18 mph 1009.4mb 85f 85f
1:50 4ft 6s 5s 18
mph
1009.9mb 85f 85f
12:50 4ft 7s 5s 16 18 mph 1010.4mb 85f 85f
11:50 4ft 7s 5s 16 18 mph 1011.1mb 85f 85f
10:50 4ft 7s 5s 16 18 mph 1011.5mb 85f 85f
9:50 4ft 7s 5s 18 20 mph 1011.8mb 85f 85f
8:50 3.5ft 5s 4s 16 20 mph 1012mb 85f 85f
7:50 3.5ft 6s 5s 16 18 mph 1011.5mb 84f 85f
6:50 3.5ft 6s 5s 16 20 mph 1010.7mb 84f 84f
5:50 3.5ft 5s 4s 13 16 mph 1010.5mb 84f 84f
4:50 3ft 6s 4s 13
mph
1010.2mb 84f 84f
3:50 2.5ft 5s 4s 13 18 mph 1009.6mb 84f 84f
2:50 2.5ft 5s 4s 13 18 mph 1009.6mb 85f 84f
1:50 2.5ft 6s 4s 16 18 mph 1009.5mb 85f 84f
12:50 2.5ft 5s 4s 13 16 mph 1009.6mb 85f 84f
Qui 08/25 11:50 2.5ft 5s 4s 13 16 mph 1010.7mb 85f 84f
10:50 2.5ft 6s 4s 13 16 mph 1011.1mb 85f 84f
9:50 2.5ft 6s 4s 13
mph
1011mb 85f 84f
8:50 2.5ft 6s 4s 11 13 mph 1010.9mb 85f 84f
7:50 2.5ft 5s 4s 9 11 mph 1010.7mb 85f 84f
6:50 2.5ft 6s 4s 7 9 mph 1010.4mb 85f 84f
5:50 2.5ft 5s 4s 7 9 mph 1009.2mb 85f 84f
4:50 2.5ft 6s 4s 9
mph
1008.5mb 85f 84f
3:50 2.5ft 6s 5s 9 11 mph 1008.5mb 85f 84f
2:50 2.5ft 5s 5s 9 11 mph 1009mb 85f 84f
1:50 2ft 6s 4s 9 11 mph 1009.7mb 85f 84f
12:50 2.5ft 6s 5s 9 11 mph 1010.2mb 85f 83f
11:50 2ft 6s 5s 9 11 mph 1010.5mb 85f 83f
10:50 2.5ft 6s 5s 9 11 mph 1010.9mb 85f 83f
9:50 2.5ft 7s 5s 11
mph
1011.1mb 85f 83f
8:50 2.5ft 6s 5s 9 11 mph 1011.2mb 85f 83f
7:50 2.5ft 6s 5s 9 11 mph 1011.1mb 84f 83f
6:50 3ft 6s 5s 7 9 mph 1010.5mb 84f 83f
5:50 2.5ft 6s 5s 9
mph
1009.8mb 84f 82f
3:50 3ft 6s 5s 4 7 mph 1010.1mb 84f 83f
2:50 3.5ft 6s 5s 7 9 mph 1010.3mb 85f 83f
1:50 3.5ft 6s 5s 9
mph
1010.6mb 85f 83f
12:50 3.5ft 6s 5s 11
mph
1011.6mb 85f 83f
Qua 08/24 11:50 3ft 6s 5s 9 11 mph 1011.7mb 85f 83f
9:50 3.5ft 6s 5s 11 13 mph 1012.5mb 85f 84f
8:50 3.5ft 6s 5s 11 13 mph 1011.6mb 85f 84f
7:50 3.5ft 6s 5s 11 13 mph 1011mb 85f 84f
6:50 3.5ft 6s 5s 13 16 mph 1010.6mb 85f 84f
5:50 3.5ft 6s 5s 11 16 mph 1010mb 85f 84f
4:50 3.5ft 6s 5s 9 11 mph 1009.9mb 85f 84f
3:50 3.5ft 6s 5s 9 11 mph 1010mb 85f 84f
2:50 3.5ft 6s 5s 11 13 mph 1010.1mb 85f 84f
1:50 3.5ft 6s 5s 13 16 mph 1010.3mb 85f 84f
12:50 3.5ft 6s 5s 11 13 mph 1011.2mb 85f 84f
11:50 3.5ft 6s  -  13 16 mph 1012.2mb 85f 84f
10:50 3.5ft 6s 5s 13 16 mph 1012.5mb 85f 84f
9:50 3.5ft 6s 5s 16 18 mph 1012.8mb 84f 84f
8:50 3.5ft 7s 5s 13
mph
1012.9mb 84f 84f
7:50 4ft 6s 5s 13 16 mph 1012.7mb 84f 84f
6:50 4ft 6s 5s 16
mph
1012.4mb 84f 84f
5:50 4ft 6s 5s 13 16 mph 1012.3mb 84f 83f
4:50 4ft 7s 5s 13 16 mph 1012mb 84f 83f
3:50 4ft 7s 5s 11 16 mph 1012.1mb 84f 83f
2:50 4.5ft 6s 5s 16 18 mph 1012.1mb 84f 84f
1:50 4.5ft 7s 5s 16 18 mph 1011.8mb 84f 83f
12:50 4.5ft 7s 5s 16 18 mph 1012.4mb 84f 84f
Ter 08/23 11:50 4.5ft 7s 5s 11 13 mph 1012.9mb 84f 84f
10:50 4.5ft 7s 5s 16 18 mph 1013.5mb 84f 84f
9:50 4.5ft 6s 5s 16 18 mph 1013.4mb 84f 84f
8:50 4.5ft 7s 5s 16
mph
1013mb 84f 84f
7:50 5ft 7s 5s 16 18 mph 1012.6mb 84f 84f
6:50 5ft 7s 5s 18 20 mph 1012mb 84f 84f
5:50 5ft 6s 5s 16 20 mph 1011.7mb 84f 84f
4:50 4.5ft 7s 5s 18 20 mph 1011.6mb 84f 84f
3:50 5ft 7s 5s 18 20 mph 1011.7mb 84f 84f
2:50 5ft 7s 5s 18 20 mph 1011.8mb 85f 84f
1:50 5ft 7s 5s 18 20 mph 1012.4mb 84f 84f